Time;durP1;ratioP1;P1;durP2;ratioP2;P2;SDS_P1;SDS_P2;PMS_P1;PMS_P2;Temp;Humidity;BMP_temperature;BMP_pressure;BME280_temperature;BME280_humidity;BME280_pressure;Samples;Min_cycle;Max_cycle;Signal;HPM_P1;HPM_P2
2022/10/19 00:01:07;;;;;;;1.65;1.10;;;;;;;;;;5043162;28;20059;-80
2022/10/19 00:03:34;;;;;;;2.85;1.23;;;;;;;;;;5042141;28;20043;-80
2022/10/19 00:05:59;;;;;;;4.05;1.20;;;;;;;;;;5056505;28;20048;-81
2022/10/19 00:08:25;;;;;;;1.92;1.10;;;;;;;;;;5089088;28;20482;-80
2022/10/19 00:10:51;;;;;;;1.38;1.20;;;;;;;;;;5039504;28;20044;-77
2022/10/19 00:13:16;;;;;;;2.00;1.17;;;;;;;;;;5040675;28;20093;-79
2022/10/19 00:15:43;;;;;;;1.38;1.10;;;;;;;;;;5055738;28;20028;-78
2022/10/19 00:18:09;;;;;;;6.00;1.42;;;;;;;;;;5055582;28;20471;-77
2022/10/19 00:20:35;;;;;;;1.95;1.25;;;;;;;;;;5038627;28;20036;-78
2022/10/19 00:23:01;;;;;;;3.72;1.33;;;;;;;;;;5039232;28;20036;-77
2022/10/19 00:25:27;;;;;;;4.25;1.48;;;;;;;;;;5039245;28;20029;-78
2022/10/19 00:27:52;;;;;;;1.90;1.30;;;;;;;;;;5055866;28;20386;-78
2022/10/19 00:30:21;;;;;;;1.52;1.20;;;;;;;;;;5039618;28;20597;-78
2022/10/19 00:32:46;;;;;;;1.90;1.20;;;;;;;;;;5055510;28;20078;-78
2022/10/19 00:35:12;;;;;;;2.47;1.30;;;;;;;;;;5036409;28;20067;-79
2022/10/19 00:37:38;;;;;;;3.10;1.42;;;;;;;;;;5053786;28;20032;-78
2022/10/19 00:40:04;;;;;;;1.75;1.25;;;;;;;;;;5036643;28;20131;-77
2022/10/19 00:42:38;;;;;;;1.45;1.35;;;;;;;;;;5055557;28;20533;-78
2022/10/19 00:45:15;;;;;;;2.75;1.48;;;;;;;;;;5054850;28;20059;-79
2022/10/19 00:47:41;;;;;;;1.65;1.38;;;;;;;;;;5054780;28;20040;-77
2022/10/19 00:50:08;;;;;;;3.22;1.50;;;;;;;;;;5039219;28;20059;-78
2022/10/19 00:52:33;;;;;;;4.20;1.98;;;;;;;;;;5075273;28;20104;-78
2022/10/19 00:54:59;;;;;;;3.33;1.80;;;;;;;;;;5040353;28;20052;-78
2022/10/19 00:57:27;;;;;;;2.35;1.70;;;;;;;;;;5056011;28;20381;-78
2022/10/19 00:59:53;;;;;;;2.83;1.75;;;;;;;;;;5041236;28;20114;-80
2022/10/19 01:02:18;;;;;;;4.68;2.10;;;;;;;;;;5059111;28;20079;-81
2022/10/19 01:04:46;;;;;;;4.25;2.20;;;;;;;;;;5069535;28;20067;-81
2022/10/19 01:07:12;;;;;;;5.35;2.38;;;;;;;;;;5074647;28;20054;-80
2022/10/19 01:09:38;;;;;;;3.05;2.00;;;;;;;;;;5038438;28;20450;-76
2022/10/19 01:12:21;;;;;;;4.97;2.05;;;;;;;;;;5037728;28;20040;-76
2022/10/19 01:14:50;;;;;;;2.83;2.10;;;;;;;;;;5054773;28;20110;-77
2022/10/19 01:17:22;;;;;;;4.05;2.15;;;;;;;;;;5037872;28;20497;-76
2022/10/19 01:19:53;;;;;;;4.60;2.47;;;;;;;;;;5038161;28;20103;-77
2022/10/19 01:22:34;;;;;;;10.35;2.40;;;;;;;;;;5071583;28;20144;-78
2022/10/19 01:25:09;;;;;;;5.68;2.58;;;;;;;;;;5054624;28;20152;-80
2022/10/19 01:27:35;;;;;;;2.70;2.10;;;;;;;;;;5037943;28;20511;-80
2022/10/19 01:30:00;;;;;;;4.95;2.40;;;;;;;;;;5070997;28;20076;-77
2022/10/19 01:32:35;;;;;;;6.47;2.50;;;;;;;;;;5041837;28;20036;-77
2022/10/19 01:35:12;;;;;;;7.95;2.55;;;;;;;;;;5043707;28;20045;-78
2022/10/19 01:37:49;;;;;;;3.22;2.20;;;;;;;;;;5057532;28;20097;-78
2022/10/19 01:40:23;;;;;;;4.15;2.35;;;;;;;;;;5039546;28;20151;-78
2022/10/19 01:43:00;;;;;;;5.30;2.30;;;;;;;;;;5076960;28;20046;-78
2022/10/19 01:45:25;;;;;;;6.10;2.30;;;;;;;;;;5042788;28;20058;-78
2022/10/19 01:47:57;;;;;;;3.33;2.50;;;;;;;;;;5058788;28;20071;-75
2022/10/19 01:50:26;;;;;;;3.65;2.45;;;;;;;;;;5044678;28;20040;-77
2022/10/19 01:52:52;;;;;;;4.97;2.22;;;;;;;;;;5040708;28;20032;-75
2022/10/19 01:55:18;;;;;;;3.35;2.28;;;;;;;;;;5039320;28;20036;-78
2022/10/19 01:57:49;;;;;;;4.82;2.35;;;;;;;;;;5038721;28;20033;-78
2022/10/19 02:00:15;;;;;;;;;;;;;;;;;;5038716;28;20044;-78
2022/10/19 02:02:47;;;;;;;6.03;2.38;;;;;;;;;;5038746;28;19919;-77
2022/10/19 02:05:14;;;;;;;3.55;2.20;;;;;;;;;;5038194;28;20036;-77
2022/10/19 02:07:41;;;;;;;4.68;2.30;;;;;;;;;;5037914;28;20070;-78
2022/10/19 02:10:07;;;;;;;4.10;2.10;;;;;;;;;;5038839;28;20453;-77
2022/10/19 02:12:35;;;;;;;3.67;2.05;;;;;;;;;;5037874;28;20043;-77
2022/10/19 02:15:04;;;;;;;4.43;1.95;;;;;;;;;;5054759;28;20044;-79
2022/10/19 02:17:33;;;;;;;4.32;2.33;;;;;;;;;;5038096;28;20033;-78
2022/10/19 02:19:59;;;;;;;3.75;2.28;;;;;;;;;;5038285;28;20570;-79
2022/10/19 02:22:25;;;;;;;4.78;2.40;;;;;;;;;;5071795;28;20036;-79
2022/10/19 02:24:50;;;;;;;2.65;1.95;;;;;;;;;;5039225;28;20037;-76
2022/10/19 02:27:16;;;;;;;2.13;1.63;;;;;;;;;;5038447;28;20127;-76
2022/10/19 02:29:42;;;;;;;2.55;1.52;;;;;;;;;;5038252;28;20139;-76
2022/10/19 02:32:07;;;;;;;4.68;1.98;;;;;;;;;;5038059;28;20146;-76
2022/10/19 02:34:34;;;;;;;16.67;3.08;;;;;;;;;;5053880;28;20043;-75
2022/10/19 02:37:00;;;;;;;3.63;2.17;;;;;;;;;;5037541;28;20024;-75
2022/10/19 02:39:26;;;;;;;4.78;2.40;;;;;;;;;;5037547;28;20044;-75
2022/10/19 02:42:05;;;;;;;3.22;2.33;;;;;;;;;;5047270;28;20028;-76
2022/10/19 02:44:39;;;;;;;5.53;2.85;;;;;;;;;;5091178;28;20348;-75
2022/10/19 02:47:16;;;;;;;4.13;2.38;;;;;;;;;;5058806;28;20032;-75
2022/10/19 02:49:42;;;;;;;6.05;2.70;;;;;;;;;;5112070;28;20048;-75
2022/10/19 02:52:10;;;;;;;4.25;2.63;;;;;;;;;;5077791;28;20032;-76
2022/10/19 02:54:37;;;;;;;4.75;2.58;;;;;;;;;;5077426;28;20431;-77
2022/10/19 02:57:08;;;;;;;4.70;3.03;;;;;;;;;;5061197;28;20020;-79
2022/10/19 02:59:34;;;;;;;6.65;2.70;;;;;;;;;;5112048;28;20127;-78
2022/10/19 03:01:59;;;;;;;2.35;1.98;;;;;;;;;;5060984;28;20173;-77
2022/10/19 03:04:25;;;;;;;6.35;2.15;;;;;;;;;;5095279;28;20043;-77
2022/10/19 03:06:51;;;;;;;3.40;2.22;;;;;;;;;;5078322;28;20044;-78
2022/10/19 03:09:16;;;;;;;3.05;2.60;;;;;;;;;;5093998;28;20048;-77
2022/10/19 03:11:43;;;;;;;3.50;2.50;;;;;;;;;;5069661;28;20114;-78
2022/10/19 03:14:09;;;;;;;4.68;2.80;;;;;;;;;;5096660;28;20036;-78
2022/10/19 03:16:36;;;;;;;6.32;3.38;;;;;;;;;;5094642;28;20054;-76
2022/10/19 03:19:01;;;;;;;3.35;2.75;;;;;;;;;;5094311;28;20036;-76
2022/10/19 03:21:27;;;;;;;4.53;2.67;;;;;;;;;;5078053;28;20035;-76
2022/10/19 03:23:53;;;;;;;5.43;2.78;;;;;;;;;;5078274;28;20478;-78
2022/10/19 03:26:19;;;;;;;4.57;2.65;;;;;;;;;;5077069;28;20066;-77
2022/10/19 03:28:44;;;;;;;3.88;3.17;;;;;;;;;;5076828;28;20237;-75
2022/10/19 03:31:10;;;;;;;6.78;3.70;;;;;;;;;;5076444;28;20035;-75
2022/10/19 03:33:36;;;;;;;3.92;2.92;;;;;;;;;;5076673;28;20047;-75
2022/10/19 03:36:11;;;;;;;6.22;2.80;;;;;;;;;;5093556;28;20074;-75
2022/10/19 03:38:37;;;;;;;4.55;2.92;;;;;;;;;;5076578;28;20040;-75
2022/10/19 03:41:04;;;;;;;5.90;3.00;;;;;;;;;;5076344;28;20378;-75
2022/10/19 03:43:31;;;;;;;3.92;2.67;;;;;;;;;;5077165;28;20481;-76
2022/10/19 03:45:56;;;;;;;4.43;2.97;;;;;;;;;;5076393;28;20189;-75
2022/10/19 03:48:22;;;;;;;4.50;2.92;;;;;;;;;;5076310;28;20043;-76
2022/10/19 03:50:47;;;;;;;3.95;3.05;;;;;;;;;;5076136;28;20039;-76
2022/10/19 03:53:13;;;;;;;5.95;2.90;;;;;;;;;;5076252;28;20056;-75
2022/10/19 03:55:40;;;;;;;6.28;3.00;;;;;;;;;;5094390;28;20125;-78
2022/10/19 03:58:06;;;;;;;6.22;3.33;;;;;;;;;;5078400;28;20064;-81
2022/10/19 04:00:32;;;;;;;7.07;3.47;;;;;;;;;;5094425;28;20040;-80
2022/10/19 04:02:58;;;;;;;7.65;3.80;;;;;;;;;;5095281;28;20097;-80
2022/10/19 04:05:23;;;;;;;4.63;3.25;;;;;;;;;;5094563;28;20118;-80
2022/10/19 04:07:50;;;;;;;5.50;3.45;;;;;;;;;;5094735;28;20505;-80
2022/10/19 04:10:21;;;;;;;7.03;3.05;;;;;;;;;;5110675;28;20389;-79
2022/10/19 04:12:46;;;;;;;8.70;3.03;;;;;;;;;;5076489;28;20044;-78
2022/10/19 04:15:12;;;;;;;6.95;3.10;;;;;;;;;;5077988;28;20042;-79
2022/10/19 04:17:37;;;;;;;13.52;3.50;;;;;;;;;;5077087;28;20047;-76
2022/10/19 04:20:03;;;;;;;11.80;3.92;;;;;;;;;;5093550;28;20035;-76
2022/10/19 04:22:29;;;;;;;7.78;3.70;;;;;;;;;;5093934;28;20067;-78
2022/10/19 04:24:54;;;;;;;5.40;3.67;;;;;;;;;;5093364;28;20070;-79
2022/10/19 04:27:23;;;;;;;7.13;3.67;;;;;;;;;;5087461;28;20037;-78
2022/10/19 04:29:48;;;;;;;10.38;3.90;;;;;;;;;;5075578;28;20454;-75
2022/10/19 04:32:14;;;;;;;11.77;4.65;;;;;;;;;;5075697;28;20031;-74
2022/10/19 04:34:40;;;;;;;11.38;5.10;;;;;;;;;;5092803;28;20092;-74
2022/10/19 04:37:08;;;;;;;12.73;5.30;;;;;;;;;;5080712;28;20040;-71
2022/10/19 04:39:38;;;;;;;14.07;5.65;;;;;;;;;;5074573;28;20395;-73
2022/10/19 04:42:03;;;;;;;19.85;6.82;;;;;;;;;;5110080;28;20374;-74
2022/10/19 04:44:29;;;;;;;12.52;6.25;;;;;;;;;;5075810;28;20066;-75
2022/10/19 04:46:55;;;;;;;15.90;6.22;;;;;;;;;;5059592;28;20116;-74
2022/10/19 04:49:22;;;;;;;15.93;6.40;;;;;;;;;;5092885;28;20044;-75
2022/10/19 04:51:47;;;;;;;12.77;6.65;;;;;;;;;;5075573;28;20118;-74
2022/10/19 04:54:13;;;;;;;12.75;6.28;;;;;;;;;;5092473;28;20131;-73
2022/10/19 04:56:39;;;;;;;10.75;5.38;;;;;;;;;;5091775;28;20040;-73
2022/10/19 04:59:04;;;;;;;15.65;6.10;;;;;;;;;;5089536;28;20620;-72
2022/10/19 05:01:30;;;;;;;20.60;7.35;;;;;;;;;;5066114;28;20032;-72
2022/10/19 05:03:59;;;;;;;12.65;6.53;;;;;;;;;;5069876;28;20036;-72
2022/10/19 05:06:25;;;;;;;12.18;6.95;;;;;;;;;;5071537;28;20044;-73
2022/10/19 05:08:51;;;;;;;12.23;6.40;;;;;;;;;;5071811;28;20068;-73
2022/10/19 05:11:17;;;;;;;11.10;6.45;;;;;;;;;;5056921;28;20536;-71
2022/10/19 05:13:43;;;;;;;12.57;6.38;;;;;;;;;;5071326;28;20127;-73
2022/10/19 05:16:10;;;;;;;12.13;6.15;;;;;;;;;;5086821;28;20036;-72
2022/10/19 05:18:36;;;;;;;13.60;7.03;;;;;;;;;;5053669;28;20127;-72
2022/10/19 05:21:12;;;;;;;19.08;8.32;;;;;;;;;;5087431;28;20143;-72
2022/10/19 05:23:38;;;;;;;34.90;10.57;;;;;;;;;;5070296;28;20059;-72
2022/10/19 05:26:06;;;;;;;16.75;10.35;;;;;;;;;;5104332;28;20466;-72
2022/10/19 05:28:31;;;;;;;22.90;9.95;;;;;;;;;;5070004;28;20110;-72
2022/10/19 05:31:23;;;;;;;18.63;9.60;;;;;;;;;;5053286;28;20032;-71
2022/10/19 05:33:49;;;;;;;24.00;9.48;;;;;;;;;;5052410;28;20138;-73
2022/10/19 05:36:19;;;;;;;17.90;9.90;;;;;;;;;;5037963;28;20036;-71
2022/10/19 05:38:45;;;;;;;22.75;10.25;;;;;;;;;;5038272;28;20039;-71
2022/10/19 05:41:11;;;;;;;22.42;11.02;;;;;;;;;;5070959;28;20051;-69
2022/10/19 05:43:38;;;;;;;22.42;10.63;;;;;;;;;;5082143;28;20036;-71
2022/10/19 05:46:05;;;;;;;19.73;9.80;;;;;;;;;;5047387;28;20028;-72
2022/10/19 05:48:32;;;;;;;20.73;9.48;;;;;;;;;;5092064;28;20173;-71
2022/10/19 05:50:58;;;;;;;26.20;12.43;;;;;;;;;;5085694;28;20029;-70
2022/10/19 05:53:23;;;;;;;32.92;14.35;;;;;;;;;;5075254;28;20398;-70
2022/10/19 05:55:49;;;;;;;14.88;7.43;;;;;;;;;;5074744;28;20113;-70
2022/10/19 05:58:14;;;;;;;10.35;6.30;;;;;;;;;;5074743;28;20073;-71
2022/10/19 06:00:40;;;;;;;12.40;5.68;;;;;;;;;;5080873;28;20466;-71
2022/10/19 06:03:06;;;;;;;9.10;5.20;;;;;;;;;;5089729;28;20123;-71
2022/10/19 06:05:31;;;;;;;8.82;5.10;;;;;;;;;;5074300;28;20024;-71
2022/10/19 06:07:57;;;;;;;9.65;5.25;;;;;;;;;;5070215;28;20431;-71
2022/10/19 06:10:22;;;;;;;8.05;4.50;;;;;;;;;;5069806;28;20029;-70
2022/10/19 06:12:48;;;;;;;8.90;4.95;;;;;;;;;;5081888;28;20062;-69
2022/10/19 06:15:14;;;;;;;14.07;5.03;;;;;;;;;;5090219;28;20381;-71
2022/10/19 06:17:39;;;;;;;9.48;5.10;;;;;;;;;;5090089;28;20039;-70
2022/10/19 06:20:05;;;;;;;7.78;4.80;;;;;;;;;;5073852;28;20130;-71
2022/10/19 06:22:30;;;;;;;8.77;5.10;;;;;;;;;;5091177;28;20502;-71
2022/10/19 06:24:56;;;;;;;9.15;5.40;;;;;;;;;;5083846;28;20040;-71
2022/10/19 06:27:21;;;;;;;9.70;5.60;;;;;;;;;;5111329;28;20071;-71
2022/10/19 06:29:47;;;;;;;9.23;5.10;;;;;;;;;;5094017;28;20055;-70
2022/10/19 06:32:13;;;;;;;7.40;4.80;;;;;;;;;;5086646;28;20040;-71
2022/10/19 06:34:38;;;;;;;10.02;4.97;;;;;;;;;;5100222;28;20732;-70
2022/10/19 06:37:04;;;;;;;9.00;4.88;;;;;;;;;;5075566;28;20805;-69
2022/10/19 06:39:29;;;;;;;8.27;5.10;;;;;;;;;;5056941;28;20040;-71
2022/10/19 06:41:55;;;;;;;9.02;4.65;;;;;;;;;;5060384;28;20051;-71
2022/10/19 06:44:25;;;;;;;10.55;4.57;;;;;;;;;;5081345;28;20067;-71
2022/10/19 06:46:51;;;;;;;7.22;4.20;;;;;;;;;;5077617;28;20192;-72
2022/10/19 06:49:16;;;;;;;10.38;3.97;;;;;;;;;;5041034;28;20044;-71
2022/10/19 06:51:42;;;;;;;6.05;4.03;;;;;;;;;;5073279;28;20036;-72
2022/10/19 06:54:07;;;;;;;6.45;3.90;;;;;;;;;;5077802;28;20036;-72
2022/10/19 06:56:33;;;;;;;7.43;4.15;;;;;;;;;;5086478;28;20032;-71
2022/10/19 06:58:58;;;;;;;6.55;4.07;;;;;;;;;;5067118;28;20054;-73
2022/10/19 07:01:24;;;;;;;5.95;4.00;;;;;;;;;;5084646;28;20127;-72
2022/10/19 07:03:50;;;;;;;7.25;4.07;;;;;;;;;;5083364;28;20033;-72
2022/10/19 07:06:17;;;;;;;4.72;3.40;;;;;;;;;;5080350;28;20033;-74
2022/10/19 07:08:43;;;;;;;5.50;3.55;;;;;;;;;;5066721;28;20040;-71
2022/10/19 07:11:10;;;;;;;3.83;3.05;;;;;;;;;;5084916;28;20671;-70
2022/10/19 07:13:35;;;;;;;5.03;3.35;;;;;;;;;;5088481;28;20186;-70
2022/10/19 07:16:05;;;;;;;3.95;3.30;;;;;;;;;;5066481;28;20476;-71
2022/10/19 07:18:32;;;;;;;8.17;3.87;;;;;;;;;;5066666;28;20028;-70
2022/10/19 07:20:58;;;;;;;4.45;3.53;;;;;;;;;;5088030;28;20040;-72
2022/10/19 07:23:25;;;;;;;8.10;4.07;;;;;;;;;;5082495;28;20044;-71
2022/10/19 07:25:52;;;;;;;8.88;4.43;;;;;;;;;;5083287;28;20138;-71
2022/10/19 07:28:19;;;;;;;7.55;3.67;;;;;;;;;;5083620;28;20109;-71
2022/10/19 07:30:45;;;;;;;6.10;3.55;;;;;;;;;;5082065;28;20395;-73
2022/10/19 07:33:10;;;;;;;6.57;4.15;;;;;;;;;;5096657;28;20145;-72
2022/10/19 07:35:36;;;;;;;9.55;4.35;;;;;;;;;;5050457;28;20061;-71
2022/10/19 07:38:01;;;;;;;5.88;4.20;;;;;;;;;;5082096;28;20028;-72
2022/10/19 07:40:27;;;;;;;6.47;4.57;;;;;;;;;;5082225;28;20060;-72
2022/10/19 07:42:52;;;;;;;8.20;5.00;;;;;;;;;;5064681;28;20028;-74
2022/10/19 07:45:18;;;;;;;12.43;5.07;;;;;;;;;;5096422;28;20432;-72
2022/10/19 07:47:43;;;;;;;7.45;5.20;;;;;;;;;;5086493;28;20051;-71
2022/10/19 07:50:09;;;;;;;9.05;5.47;;;;;;;;;;5071838;28;20051;-71
2022/10/19 07:52:34;;;;;;;6.68;5.53;;;;;;;;;;5082029;28;20440;-71
2022/10/19 07:55:02;;;;;;;9.23;5.70;;;;;;;;;;5082235;28;20055;-72
2022/10/19 07:57:29;;;;;;;10.35;5.78;;;;;;;;;;5082165;28;20036;-72
2022/10/19 07:59:54;;;;;;;10.45;6.28;;;;;;;;;;5079058;28;20133;-73
2022/10/19 08:02:20;;;;;;;7.97;5.60;;;;;;;;;;5054239;28;20036;-72
2022/10/19 08:04:45;;;;;;;7.07;5.03;;;;;;;;;;5055090;28;20036;-71
2022/10/19 08:07:12;;;;;;;7.93;5.53;;;;;;;;;;5087322;28;20077;-74
2022/10/19 08:09:37;;;;;;;8.52;4.93;;;;;;;;;;5077494;28;20044;-71
2022/10/19 08:12:03;;;;;;;7.47;4.60;;;;;;;;;;5053957;28;20540;-71
2022/10/19 08:14:29;;;;;;;5.53;4.43;;;;;;;;;;5055295;28;20414;-73
2022/10/19 08:16:55;;;;;;;9.77;4.60;;;;;;;;;;5053960;28;20386;-71
2022/10/19 08:19:21;;;;;;;12.15;4.63;;;;;;;;;;5034020;28;20039;-72
2022/10/19 08:21:47;;;;;;;5.05;3.65;;;;;;;;;;5049770;28;20032;-71
2022/10/19 08:24:13;;;;;;;5.32;3.72;;;;;;;;;;5087866;28;20028;-71
2022/10/19 08:26:39;;;;;;;7.03;4.40;;;;;;;;;;5074201;28;20028;-71
2022/10/19 08:29:06;;;;;;;5.50;3.67;;;;;;;;;;5106106;28;20054;-72
2022/10/19 08:31:32;;;;;;;8.40;4.43;;;;;;;;;;5086047;28;20505;-71
2022/10/19 08:33:57;;;;;;;8.80;3.95;;;;;;;;;;5093384;28;20036;-71
2022/10/19 08:36:23;;;;;;;8.48;4.38;;;;;;;;;;5056494;28;20038;-71
2022/10/19 08:38:49;;;;;;;7.95;4.03;;;;;;;;;;5087412;28;20047;-71
2022/10/19 08:41:24;;;;;;;6.63;4.60;;;;;;;;;;5081805;28;20689;-71
2022/10/19 08:44:05;;;;;;;8.35;4.28;;;;;;;;;;5062666;28;20028;-71
2022/10/19 08:46:39;;;;;;;8.50;4.55;;;;;;;;;;5059054;28;20071;-73
2022/10/19 08:49:07;;;;;;;7.25;4.38;;;;;;;;;;5068667;28;20097;-72
2022/10/19 08:51:35;;;;;;;5.00;4.03;;;;;;;;;;5091804;28;20123;-73
2022/10/19 08:54:03;;;;;;;7.05;4.32;;;;;;;;;;5077154;28;20067;-72
2022/10/19 08:56:46;;;;;;;7.80;4.40;;;;;;;;;;5124650;27;20156;-74
2022/10/19 08:59:18;;;;;;;7.47;4.10;;;;;;;;;;5073683;28;20469;-74
2022/10/19 09:01:55;;;;;;;8.27;4.32;;;;;;;;;;5108037;28;20458;-74
2022/10/19 09:04:24;;;;;;;7.50;3.58;;;;;;;;;;5107792;28;20067;-74
2022/10/19 09:06:55;;;;;;;6.70;4.18;;;;;;;;;;5107846;28;20047;-74
2022/10/19 09:09:21;;;;;;;;;;;;;;;;;;5091478;28;20507;-74
2022/10/19 09:11:48;;;;;;;9.25;4.70;;;;;;;;;;5073225;28;19931;-76
2022/10/19 09:14:32;;;;;;;5.60;4.20;;;;;;;;;;5073425;28;20036;-72
2022/10/19 09:17:09;;;;;;;8.20;5.00;;;;;;;;;;5073730;28;20028;-72
2022/10/19 09:19:34;;;;;;;6.32;4.30;;;;;;;;;;5073105;28;20051;-71
2022/10/19 09:22:06;;;;;;;7.00;4.38;;;;;;;;;;5083525;28;20035;-72
2022/10/19 09:24:42;;;;;;;8.57;4.63;;;;;;;;;;5070368;28;20036;-72
2022/10/19 09:27:17;;;;;;;8.32;4.85;;;;;;;;;;5104021;28;20087;-72
2022/10/19 09:29:56;;;;;;;10.95;6.32;;;;;;;;;;5083706;28;20036;-72
2022/10/19 09:32:27;;;;;;;12.65;5.60;;;;;;;;;;5068587;28;20028;-73
2022/10/19 09:34:55;;;;;;;8.55;6.00;;;;;;;;;;5068192;28;20452;-73
2022/10/19 09:37:21;;;;;;;11.88;6.65;;;;;;;;;;5070193;28;20032;-73
2022/10/19 09:39:47;;;;;;;12.32;6.45;;;;;;;;;;5067616;28;20059;-72
2022/10/19 09:42:33;;;;;;;8.73;6.03;;;;;;;;;;5069510;28;20124;-74
2022/10/19 09:45:00;;;;;;;10.90;6.63;;;;;;;;;;5053267;28;20033;-73
2022/10/19 09:47:32;;;;;;;9.98;6.63;;;;;;;;;;5043210;28;20457;-73
2022/10/19 09:50:24;;;;;;;8.93;6.55;;;;;;;;;;5066623;28;20037;-73
2022/10/19 09:52:56;;;;;;;6.80;5.35;;;;;;;;;;5049206;28;20093;-73
2022/10/19 09:55:48;;;;;;;10.40;6.57;;;;;;;;;;5033145;28;20052;-72
2022/10/19 09:58:14;;;;;;;7.38;5.45;;;;;;;;;;5049234;28;20100;-72
2022/10/19 10:00:49;;;;;;;10.60;5.35;;;;;;;;;;5065595;28;20182;-71
2022/10/19 10:03:25;;;;;;;11.27;5.10;;;;;;;;;;5065528;28;20090;-72
2022/10/19 10:05:51;;;;;;;8.75;4.95;;;;;;;;;;5065245;28;20056;-72
2022/10/19 10:08:19;;;;;;;6.07;4.18;;;;;;;;;;5035510;28;20063;-73
2022/10/19 10:11:08;;;;;;;4.72;3.70;;;;;;;;;;5036373;28;20109;-75
2022/10/19 10:13:36;;;;;;;4.75;4.13;;;;;;;;;;5051834;28;20061;-73
2022/10/19 10:16:03;;;;;;;6.22;4.35;;;;;;;;;;5064983;28;20072;-73
2022/10/19 10:18:29;;;;;;;5.95;4.38;;;;;;;;;;5056670;28;20753;-76
2022/10/19 10:21:02;;;;;;;6.78;4.20;;;;;;;;;;5036314;28;20059;-74
2022/10/19 10:23:30;;;;;;;4.97;4.47;;;;;;;;;;5036972;28;20043;-73
2022/10/19 10:25:58;;;;;;;5.95;4.70;;;;;;;;;;5055192;28;20759;-72
2022/10/19 10:28:25;;;;;;;7.65;4.90;;;;;;;;;;5070480;28;20159;-74
2022/10/19 10:30:58;;;;;;;6.35;4.50;;;;;;;;;;5065870;28;20506;-73
2022/10/19 10:33:27;;;;;;;7.50;4.82;;;;;;;;;;5034855;28;20112;-72
2022/10/19 10:35:55;;;;;;;7.38;4.68;;;;;;;;;;5053972;28;20044;-72
2022/10/19 10:38:24;;;;;;;7.47;4.68;;;;;;;;;;5053909;28;20106;-73
2022/10/19 10:40:59;;;;;;;10.68;5.05;;;;;;;;;;5053778;28;20162;-72
2022/10/19 10:43:28;;;;;;;7.28;5.25;;;;;;;;;;5070113;28;20063;-73
2022/10/19 10:45:53;;;;;;;9.40;5.28;;;;;;;;;;5035701;28;20538;-73
2022/10/19 10:48:24;;;;;;;6.05;4.75;;;;;;;;;;5071348;28;20029;-74
2022/10/19 10:50:50;;;;;;;6.78;4.32;;;;;;;;;;5055116;28;20044;-74
2022/10/19 10:53:34;;;;;;;5.80;4.53;;;;;;;;;;5054827;28;20052;-73
2022/10/19 10:56:00;;;;;;;5.95;3.58;;;;;;;;;;5054425;28;20056;-74
2022/10/19 10:58:25;;;;;;;4.55;3.25;;;;;;;;;;5072562;28;20632;-74
2022/10/19 11:00:51;;;;;;;4.38;3.25;;;;;;;;;;5054549;28;20047;-72
2022/10/19 11:03:31;;;;;;;5.10;3.85;;;;;;;;;;5054417;28;20482;-74
2022/10/19 11:05:58;;;;;;;6.60;4.68;;;;;;;;;;5070612;28;20127;-73
2022/10/19 11:08:25;;;;;;;6.70;4.53;;;;;;;;;;5054947;28;20044;-74
2022/10/19 11:10:56;;;;;;;7.45;4.60;;;;;;;;;;5054846;28;20101;-73
2022/10/19 11:13:32;;;;;;;7.57;4.97;;;;;;;;;;5054098;28;20036;-73
2022/10/19 11:16:00;;;;;;;8.13;5.05;;;;;;;;;;5054414;28;20505;-73
2022/10/19 11:18:29;;;;;;;9.18;5.70;;;;;;;;;;5053625;28;20047;-73
2022/10/19 11:20:57;;;;;;;7.10;4.95;;;;;;;;;;5071312;28;20041;-72
2022/10/19 11:23:37;;;;;;;7.40;4.75;;;;;;;;;;5070713;28;20819;-74
2022/10/19 11:26:24;;;;;;;6.80;4.07;;;;;;;;;;5053230;28;20474;-73
2022/10/19 11:28:50;;;;;;;6.75;4.28;;;;;;;;;;5054512;28;20386;-73
2022/10/19 11:31:28;;;;;;;7.32;4.53;;;;;;;;;;5054924;28;20047;-73
2022/10/19 11:34:02;;;;;;;9.40;4.80;;;;;;;;;;5055481;28;20816;-74
2022/10/19 11:36:38;;;;;;;8.70;5.65;;;;;;;;;;5055466;28;20425;-74
2022/10/19 11:39:07;;;;;;;9.80;5.88;;;;;;;;;;5056652;28;20032;-73
2022/10/19 11:41:36;;;;;;;9.55;6.32;;;;;;;;;;5040659;28;20467;-74
2022/10/19 11:44:15;;;;;;;9.15;6.35;;;;;;;;;;5072215;28;20492;-75
2022/10/19 11:46:44;;;;;;;9.25;6.25;;;;;;;;;;5051476;28;20454;-74
2022/10/19 11:49:13;;;;;;;10.60;6.70;;;;;;;;;;5035172;28;20032;-76
2022/10/19 11:51:51;;;;;;;9.95;6.82;;;;;;;;;;5035607;28;20339;-75
2022/10/19 11:54:23;;;;;;;10.30;6.93;;;;;;;;;;5068503;28;20143;-73
2022/10/19 11:56:51;;;;;;;11.57;8.07;;;;;;;;;;5049555;28;20601;-73
2022/10/19 11:59:19;;;;;;;16.75;9.15;;;;;;;;;;5051618;28;20431;-74
2022/10/19 12:01:46;;;;;;;16.95;10.90;;;;;;;;;;5048949;28;20504;-74
2022/10/19 12:04:30;;;;;;;15.90;10.68;;;;;;;;;;5050547;28;20032;-74
2022/10/19 12:07:14;;;;;;;19.13;10.75;;;;;;;;;;5064712;28;20032;-73
2022/10/19 12:09:46;;;;;;;17.83;9.75;;;;;;;;;;5045407;28;20048;-75
2022/10/19 12:12:31;;;;;;;13.15;8.50;;;;;;;;;;5065672;28;20028;-74
2022/10/19 12:15:15;;;;;;;12.27;8.10;;;;;;;;;;5061321;28;20037;-74
2022/10/19 12:17:44;;;;;;;15.85;7.75;;;;;;;;;;5067207;28;20131;-75
2022/10/19 12:20:20;;;;;;;10.35;6.97;;;;;;;;;;5046084;28;20498;-74
2022/10/19 12:22:47;;;;;;;10.75;7.25;;;;;;;;;;5063246;28;20113;-74
2022/10/19 12:25:14;;;;;;;10.38;7.07;;;;;;;;;;5065276;28;20040;-75
2022/10/19 12:27:40;;;;;;;10.93;6.78;;;;;;;;;;5063010;28;20090;-74
2022/10/19 12:30:13;;;;;;;11.80;7.50;;;;;;;;;;5047081;28;20554;-74
2022/10/19 12:32:57;;;;;;;13.30;7.95;;;;;;;;;;5064618;28;20057;-74
2022/10/19 12:35:22;;;;;;;12.40;6.65;;;;;;;;;;5064133;28;20055;-74
2022/10/19 12:37:55;;;;;;;10.60;6.65;;;;;;;;;;5046945;28;20052;-75
2022/10/19 12:40:31;;;;;;;8.32;6.20;;;;;;;;;;5030396;28;20063;-75
2022/10/19 12:43:12;;;;;;;8.07;5.72;;;;;;;;;;5063555;28;20452;-75
2022/10/19 12:46:07;;;;;;;8.18;5.75;;;;;;;;;;5072335;28;20036;-74
2022/10/19 12:48:35;;;;;;;9.57;6.00;;;;;;;;;;5027743;28;20043;-76
2022/10/19 12:51:10;;;;;;;8.00;5.32;;;;;;;;;;5037544;28;20131;-75
2022/10/19 12:53:41;;;;;;;12.93;7.68;;;;;;;;;;5053366;28;20040;-74
2022/10/19 12:56:12;;;;;;;21.80;10.02;;;;;;;;;;5051896;28;20052;-73
2022/10/19 12:58:44;;;;;;;12.25;7.18;;;;;;;;;;5053014;28;20478;-73
2022/10/19 13:01:21;;;;;;;11.73;6.95;;;;;;;;;;5053494;28;20467;-76
2022/10/19 13:03:48;;;;;;;11.43;5.90;;;;;;;;;;5054273;28;20040;-74
2022/10/19 13:06:16;;;;;;;15.80;8.10;;;;;;;;;;5053343;28;20028;-74
2022/10/19 13:08:46;;;;;;;9.00;5.95;;;;;;;;;;5070320;28;20041;-74
2022/10/19 13:11:15;;;;;;;10.68;5.82;;;;;;;;;;5054827;28;20044;-73
2022/10/19 13:14:05;;;;;;;11.88;5.97;;;;;;;;;;5054636;28;20029;-74
2022/10/19 13:16:32;;;;;;;9.52;5.80;;;;;;;;;;5082447;28;20360;-74
2022/10/19 13:18:58;;;;;;;10.35;5.93;;;;;;;;;;5070653;28;20612;-74
2022/10/19 13:21:43;;;;;;;10.88;6.53;;;;;;;;;;5054346;28;20135;-75
2022/10/19 13:24:24;;;;;;;12.82;6.90;;;;;;;;;;5036069;28;20120;-74
2022/10/19 13:27:02;;;;;;;10.70;6.93;;;;;;;;;;5052441;28;20089;-75
2022/10/19 13:29:28;;;;;;;11.15;7.32;;;;;;;;;;5069106;28;20064;-74
2022/10/19 13:31:53;;;;;;;12.43;7.30;;;;;;;;;;5036178;28;20068;-74
2022/10/19 13:34:19;;;;;;;12.98;7.88;;;;;;;;;;5036258;28;20037;-74
2022/10/19 13:37:01;;;;;;;15.48;7.88;;;;;;;;;;5036288;28;20052;-74
2022/10/19 13:39:27;;;;;;;14.20;7.75;;;;;;;;;;5069585;28;20051;-76
2022/10/19 13:41:55;;;;;;;16.73;7.40;;;;;;;;;;5053973;28;20051;-75
2022/10/19 13:44:29;;;;;;;12.52;8.13;;;;;;;;;;5072826;28;20047;-75
2022/10/19 13:47:14;;;;;;;11.32;7.90;;;;;;;;;;5072402;28;20618;-74
2022/10/19 13:50:12;;;;;;;14.30;7.97;;;;;;;;;;5039384;28;20131;-74
2022/10/19 13:52:37;;;;;;;11.07;7.65;;;;;;;;;;5061219;28;20394;-73
2022/10/19 13:55:27;;;;;;;14.77;8.20;;;;;;;;;;5072858;28;20052;-75
2022/10/19 13:57:52;;;;;;;11.98;8.07;;;;;;;;;;5072815;28;20032;-74
2022/10/19 14:00:20;;;;;;;11.07;7.38;;;;;;;;;;5039484;28;20197;-74
2022/10/19 14:02:59;;;;;;;11.98;8.07;;;;;;;;;;5039437;28;20501;-73
2022/10/19 14:05:28;;;;;;;14.30;8.57;;;;;;;;;;5039387;28;20043;-73
2022/10/19 14:08:02;;;;;;;24.88;9.57;;;;;;;;;;5055275;28;20036;-73
2022/10/19 14:10:28;;;;;;;11.23;8.90;;;;;;;;;;5056332;28;20036;-73
2022/10/19 14:12:54;;;;;;;13.30;9.43;;;;;;;;;;5072634;28;20059;-74
2022/10/19 14:15:21;;;;;;;15.07;9.32;;;;;;;;;;5072507;28;20722;-74
2022/10/19 14:17:47;;;;;;;14.13;9.10;;;;;;;;;;5039240;28;20033;-73
2022/10/19 14:20:41;;;;;;;12.40;8.68;;;;;;;;;;5072325;28;20158;-73
2022/10/19 14:23:20;;;;;;;13.13;9.15;;;;;;;;;;5071203;28;20036;-73
2022/10/19 14:25:57;;;;;;;16.13;9.68;;;;;;;;;;5039039;28;20043;-73
2022/10/19 14:28:23;;;;;;;14.75;9.23;;;;;;;;;;5039137;28;20182;-75
2022/10/19 14:31:03;;;;;;;14.40;9.65;;;;;;;;;;5039224;28;20036;-73
2022/10/19 14:33:32;;;;;;;16.30;9.95;;;;;;;;;;5055094;28;20036;-73
2022/10/19 14:36:02;;;;;;;16.55;9.75;;;;;;;;;;5055025;28;20048;-76
2022/10/19 14:38:35;;;;;;;13.88;9.13;;;;;;;;;;5057915;28;20079;-75
2022/10/19 14:41:02;;;;;;;17.88;9.20;;;;;;;;;;5035434;28;20090;-74
2022/10/19 14:43:29;;;;;;;13.63;9.73;;;;;;;;;;5052323;28;20528;-75
2022/10/19 14:46:02;;;;;;;13.60;9.90;;;;;;;;;;5035287;28;20033;-75
2022/10/19 14:48:28;;;;;;;17.25;9.40;;;;;;;;;;5035394;28;20029;-74
2022/10/19 14:50:55;;;;;;;17.27;10.13;;;;;;;;;;5035539;28;20117;-73